Hovedside
METAR-TAF:

METAR-TAF

Lufthavner :

Jönköping lufthavn

Jönköping, Sverige

breddegrad: 57-46N, lengdegrad: 014-05E, høyde over havet: 226 m

Gjeldene værobservasjon

Denne rapporten ble laget for 20 minutter siden, klokken 10:20 UTC
Vind 12 kt fra Vest-sørvest, skiftende mellom Sørvest og Vest
Temperatur 16°C
Luftfuktighet 72%
Trykk 1009 hPa
Sikt 10 km eller mer
Brutte skyer i en høyde av 3100 ft

METAR: ESGJ 191020Z 24012KT 220V280 9999 BKN031 16/11 Q1009

Tid: 12:40 (10:40 UTC)

Varsel

Denne rapporten ble laget for 2 timer og 10 minutter siden, klokken 08:30 UTC
Varsel gyldig fra 19. klokken 09 UTC til 19. klokken 18 UTC
Vind 10 kt fra Vest-sørvest
Sikt 10 km eller mer
Spredte skyer i en høyde av 2500 ft
Sannsynlighet 40%
fra 19. klokken 13 UTC til 19. klokken 18 UTC
Brutte skyer i en høyde av 2000 ft, Bygeskyer.
regnbyger,

TAF: ESGJ 190830Z 1909/1918 25010KT 9999 SCT025 PROB40 1913/1918 SHRA BKN020CB

Værobservasjoner og værvarsel for over 4000 flyplasser (METAR- og TAF-rapporter).

Tilgjengelige stasjoner er representert av de røde og gule prikkene på kartet.

Hold musepekeren over prikken for å se navnet på stasjonen.

Klikk så for å se værobservasjoner og -varsler.

For å forandre kartet kan du klikke på den grønne knappen med svart kryss for å zoome inn, på den grønne knappen med strek for å zoome ut, eller på de grønne pilene for å se tilstøtende kart.


METAR-TAF: